sensor_id;sensor_type;location;lat;lon;timestamp;temperature;humidity
37322;DHT22;23697;48.684;9.032;2023-02-03T00:00:32;4.00;88.60
37322;DHT22;23697;48.684;9.032;2023-02-03T00:03:01;4.00;88.70
37322;DHT22;23697;48.684;9.032;2023-02-03T00:05:28;4.10;88.70
37322;DHT22;23697;48.684;9.032;2023-02-03T00:07:55;4.00;88.80
37322;DHT22;23697;48.684;9.032;2023-02-03T00:10:22;4.00;88.80
37322;DHT22;23697;48.684;9.032;2023-02-03T00:12:50;4.00;88.80
37322;DHT22;23697;48.684;9.032;2023-02-03T00:15:18;4.10;88.80
37322;DHT22;23697;48.684;9.032;2023-02-03T00:17:44;4.10;88.70
37322;DHT22;23697;48.684;9.032;2023-02-03T00:20:13;4.10;88.60
37322;DHT22;23697;48.684;9.032;2023-02-03T00:22:40;4.10;88.60
37322;DHT22;23697;48.684;9.032;2023-02-03T00:25:07;4.00;88.60
37322;DHT22;23697;48.684;9.032;2023-02-03T00:27:34;4.10;88.60
37322;DHT22;23697;48.684;9.032;2023-02-03T00:30:01;4.00;88.50
37322;DHT22;23697;48.684;9.032;2023-02-03T00:32:28;4.00;88.50
37322;DHT22;23697;48.684;9.032;2023-02-03T00:34:55;4.00;88.50
37322;DHT22;23697;48.684;9.032;2023-02-03T00:37:23;4.10;88.50
37322;DHT22;23697;48.684;9.032;2023-02-03T00:39:50;4.00;88.50
37322;DHT22;23697;48.684;9.032;2023-02-03T00:42:17;4.00;88.50
37322;DHT22;23697;48.684;9.032;2023-02-03T00:44:43;4.00;88.50
37322;DHT22;23697;48.684;9.032;2023-02-03T00:47:10;4.00;88.50
37322;DHT22;23697;48.684;9.032;2023-02-03T00:49:37;4.00;88.50
37322;DHT22;23697;48.684;9.032;2023-02-03T00:52:04;4.00;88.50
37322;DHT22;23697;48.684;9.032;2023-02-03T00:54:32;4.00;88.50
37322;DHT22;23697;48.684;9.032;2023-02-03T00:56:59;4.00;88.50
37322;DHT22;23697;48.684;9.032;2023-02-03T00:59:26;4.00;88.40
37322;DHT22;23697;48.684;9.032;2023-02-03T01:01:53;4.00;88.50
37322;DHT22;23697;48.684;9.032;2023-02-03T01:04:20;3.90;88.50
37322;DHT22;23697;48.684;9.032;2023-02-03T01:06:46;4.00;88.50
37322;DHT22;23697;48.684;9.032;2023-02-03T01:09:13;3.90;88.50
37322;DHT22;23697;48.684;9.032;2023-02-03T01:11:42;3.90;88.50
37322;DHT22;23697;48.684;9.032;2023-02-03T01:14:08;3.90;88.50
37322;DHT22;23697;48.684;9.032;2023-02-03T01:16:35;4.00;88.50
37322;DHT22;23697;48.684;9.032;2023-02-03T01:19:04;4.00;88.50
37322;DHT22;23697;48.684;9.032;2023-02-03T01:21:31;4.00;88.50
37322;DHT22;23697;48.684;9.032;2023-02-03T01:23:59;3.90;88.50
37322;DHT22;23697;48.684;9.032;2023-02-03T01:26:26;3.90;88.60
37322;DHT22;23697;48.684;9.032;2023-02-03T01:28:56;4.00;88.50
37322;DHT22;23697;48.684;9.032;2023-02-03T01:31:25;4.00;88.50
37322;DHT22;23697;48.684;9.032;2023-02-03T01:33:53;4.10;88.50
37322;DHT22;23697;48.684;9.032;2023-02-03T01:36:22;4.00;88.40
37322;DHT22;23697;48.684;9.032;2023-02-03T01:38:49;4.00;88.40
37322;DHT22;23697;48.684;9.032;2023-02-03T01:41:19;4.10;88.50
37322;DHT22;23697;48.684;9.032;2023-02-03T01:43:47;4.10;88.50
37322;DHT22;23697;48.684;9.032;2023-02-03T01:46:23;4.00;88.50
37322;DHT22;23697;48.684;9.032;2023-02-03T01:48:52;4.10;88.50
37322;DHT22;23697;48.684;9.032;2023-02-03T01:51:20;4.10;88.60
37322;DHT22;23697;48.684;9.032;2023-02-03T01:53:48;4.10;88.60
37322;DHT22;23697;48.684;9.032;2023-02-03T01:56:16;4.10;88.60
37322;DHT22;23697;48.684;9.032;2023-02-03T01:58:45;4.10;88.60
37322;DHT22;23697;48.684;9.032;2023-02-03T02:01:12;4.10;88.60
37322;DHT22;23697;48.684;9.032;2023-02-03T02:03:43;4.20;88.60
37322;DHT22;23697;48.684;9.032;2023-02-03T02:06:13;4.20;88.50
37322;DHT22;23697;48.684;9.032;2023-02-03T02:08:45;4.20;88.60
37322;DHT22;23697;48.684;9.032;2023-02-03T02:11:13;4.20;88.60
37322;DHT22;23697;48.684;9.032;2023-02-03T02:13:42;4.20;88.60
37322;DHT22;23697;48.684;9.032;2023-02-03T02:16:15;4.10;88.60
37322;DHT22;23697;48.684;9.032;2023-02-03T02:19:05;4.20;88.60
37322;DHT22;23697;48.684;9.032;2023-02-03T02:21:58;4.20;88.60
37322;DHT22;23697;48.684;9.032;2023-02-03T02:27:33;4.10;88.70
37322;DHT22;23697;48.684;9.032;2023-02-03T02:30:24;4.10;88.80
37322;DHT22;23697;48.684;9.032;2023-02-03T02:33:09;4.10;88.70
37322;DHT22;23697;48.684;9.032;2023-02-03T02:35:46;4.10;88.70
37322;DHT22;23697;48.684;9.032;2023-02-03T02:38:24;4.10;88.80
37322;DHT22;23697;48.684;9.032;2023-02-03T02:40:59;4.10;88.80
37322;DHT22;23697;48.684;9.032;2023-02-03T02:43:36;4.10;88.90
37322;DHT22;23697;48.684;9.032;2023-02-03T02:46:09;4.00;89.00
37322;DHT22;23697;48.684;9.032;2023-02-03T02:48:39;4.00;89.10
37322;DHT22;23697;48.684;9.032;2023-02-03T02:51:11;4.00;89.10
37322;DHT22;23697;48.684;9.032;2023-02-03T02:53:43;4.00;89.10
37322;DHT22;23697;48.684;9.032;2023-02-03T02:56:12;4.10;89.10
37322;DHT22;23697;48.684;9.032;2023-02-03T02:58:42;4.10;89.10
37322;DHT22;23697;48.684;9.032;2023-02-03T03:01:11;4.10;89.10
37322;DHT22;23697;48.684;9.032;2023-02-03T03:03:40;4.00;89.10
37322;DHT22;23697;48.684;9.032;2023-02-03T03:06:12;4.10;89.20
37322;DHT22;23697;48.684;9.032;2023-02-03T03:08:43;4.10;89.20
37322;DHT22;23697;48.684;9.032;2023-02-03T03:11:11;4.20;89.10
37322;DHT22;23697;48.684;9.032;2023-02-03T03:13:42;4.20;89.10
37322;DHT22;23697;48.684;9.032;2023-02-03T03:16:13;4.20;89.10
37322;DHT22;23697;48.684;9.032;2023-02-03T03:18:43;4.20;89.00
37322;DHT22;23697;48.684;9.032;2023-02-03T03:21:15;4.20;89.00
37322;DHT22;23697;48.684;9.032;2023-02-03T03:23:45;4.20;88.90
37322;DHT22;23697;48.684;9.032;2023-02-03T03:26:17;4.20;88.90
37322;DHT22;23697;48.684;9.032;2023-02-03T03:28:47;4.20;88.90
37322;DHT22;23697;48.684;9.032;2023-02-03T03:31:16;4.10;88.80
37322;DHT22;23697;48.684;9.032;2023-02-03T03:33:45;4.10;88.80
37322;DHT22;23697;48.684;9.032;2023-02-03T03:36:19;4.10;88.70
37322;DHT22;23697;48.684;9.032;2023-02-03T03:38:54;4.10;88.70
37322;DHT22;23697;48.684;9.032;2023-02-03T03:41:28;4.10;88.70
37322;DHT22;23697;48.684;9.032;2023-02-03T03:43:59;4.10;88.70
37322;DHT22;23697;48.684;9.032;2023-02-03T03:46:30;4.10;88.70
37322;DHT22;23697;48.684;9.032;2023-02-03T03:49:02;4.10;88.70
37322;DHT22;23697;48.684;9.032;2023-02-03T03:51:32;4.10;88.70
37322;DHT22;23697;48.684;9.032;2023-02-03T03:54:04;4.20;88.60
37322;DHT22;23697;48.684;9.032;2023-02-03T03:56:35;4.20;88.50
37322;DHT22;23697;48.684;9.032;2023-02-03T03:59:03;4.20;88.30
37322;DHT22;23697;48.684;9.032;2023-02-03T04:01:33;4.20;88.30
37322;DHT22;23697;48.684;9.032;2023-02-03T04:04:06;4.20;88.30
37322;DHT22;23697;48.684;9.032;2023-02-03T04:06:33;4.20;88.30
37322;DHT22;23697;48.684;9.032;2023-02-03T04:09:00;4.30;88.40
37322;DHT22;23697;48.684;9.032;2023-02-03T04:11:27;4.20;88.50
37322;DHT22;23697;48.684;9.032;2023-02-03T04:14:08;4.20;88.50
37322;DHT22;23697;48.684;9.032;2023-02-03T04:16:34;4.10;88.60
37322;DHT22;23697;48.684;9.032;2023-02-03T04:19:03;4.20;88.70
37322;DHT22;23697;48.684;9.032;2023-02-03T04:21:30;4.20;88.80
37322;DHT22;23697;48.684;9.032;2023-02-03T04:23:56;4.10;88.80
37322;DHT22;23697;48.684;9.032;2023-02-03T04:26:23;4.10;88.90
37322;DHT22;23697;48.684;9.032;2023-02-03T04:28:50;4.10;89.00
37322;DHT22;23697;48.684;9.032;2023-02-03T04:31:17;4.10;89.10
37322;DHT22;23697;48.684;9.032;2023-02-03T04:33:44;4.10;89.20
37322;DHT22;23697;48.684;9.032;2023-02-03T04:36:12;4.20;89.20
37322;DHT22;23697;48.684;9.032;2023-02-03T04:38:39;4.10;89.30
37322;DHT22;23697;48.684;9.032;2023-02-03T04:41:05;4.10;89.40
37322;DHT22;23697;48.684;9.032;2023-02-03T04:43:32;4.10;89.50
37322;DHT22;23697;48.684;9.032;2023-02-03T04:45:59;4.10;89.50
37322;DHT22;23697;48.684;9.032;2023-02-03T04:48:26;4.10;89.60
37322;DHT22;23697;48.684;9.032;2023-02-03T04:50:53;4.10;89.70
37322;DHT22;23697;48.684;9.032;2023-02-03T04:53:21;4.00;89.80
37322;DHT22;23697;48.684;9.032;2023-02-03T04:55:48;4.10;89.80
37322;DHT22;23697;48.684;9.032;2023-02-03T04:58:15;4.10;89.80
37322;DHT22;23697;48.684;9.032;2023-02-03T05:00:42;4.10;89.90
37322;DHT22;23697;48.684;9.032;2023-02-03T05:03:09;4.10;89.90
37322;DHT22;23697;48.684;9.032;2023-02-03T05:05:35;4.10;90.00
37322;DHT22;23697;48.684;9.032;2023-02-03T05:08:02;4.10;90.00
37322;DHT22;23697;48.684;9.032;2023-02-03T05:10:31;4.10;89.90
37322;DHT22;23697;48.684;9.032;2023-02-03T05:12:57;4.10;90.00
37322;DHT22;23697;48.684;9.032;2023-02-03T05:15:24;4.10;90.00
37322;DHT22;23697;48.684;9.032;2023-02-03T05:17:52;4.10;90.00
37322;DHT22;23697;48.684;9.032;2023-02-03T05:20:19;4.10;90.10
37322;DHT22;23697;48.684;9.032;2023-02-03T05:22:46;4.00;90.10
37322;DHT22;23697;48.684;9.032;2023-02-03T05:25:13;4.10;90.10
37322;DHT22;23697;48.684;9.032;2023-02-03T05:27:42;4.10;90.10
37322;DHT22;23697;48.684;9.032;2023-02-03T05:30:10;4.10;90.00
37322;DHT22;23697;48.684;9.032;2023-02-03T05:32:37;4.10;90.00
37322;DHT22;23697;48.684;9.032;2023-02-03T05:35:04;4.10;90.10
37322;DHT22;23697;48.684;9.032;2023-02-03T05:37:31;4.10;90.10
37322;DHT22;23697;48.684;9.032;2023-02-03T05:39:57;4.00;90.10
37322;DHT22;23697;48.684;9.032;2023-02-03T05:42:49;4.10;90.20
37322;DHT22;23697;48.684;9.032;2023-02-03T05:45:15;4.10;90.20
37322;DHT22;23697;48.684;9.032;2023-02-03T05:47:42;4.10;90.20
37322;DHT22;23697;48.684;9.032;2023-02-03T05:50:09;4.10;90.10
37322;DHT22;23697;48.684;9.032;2023-02-03T05:52:36;4.10;90.10
37322;DHT22;23697;48.684;9.032;2023-02-03T05:55:03;4.10;90.00
37322;DHT22;23697;48.684;9.032;2023-02-03T05:57:30;4.10;90.00
37322;DHT22;23697;48.684;9.032;2023-02-03T05:59:58;4.10;90.00
37322;DHT22;23697;48.684;9.032;2023-02-03T06:02:25;4.00;90.00
37322;DHT22;23697;48.684;9.032;2023-02-03T06:04:51;4.00;90.00
37322;DHT22;23697;48.684;9.032;2023-02-03T06:07:18;4.00;90.10
37322;DHT22;23697;48.684;9.032;2023-02-03T06:09:45;4.10;90.10
37322;DHT22;23697;48.684;9.032;2023-02-03T06:12:12;4.00;90.10
37322;DHT22;23697;48.684;9.032;2023-02-03T06:14:40;4.10;90.10
37322;DHT22;23697;48.684;9.032;2023-02-03T06:17:08;4.10;90.00
37322;DHT22;23697;48.684;9.032;2023-02-03T06:19:35;4.00;90.00
37322;DHT22;23697;48.684;9.032;2023-02-03T06:22:02;4.10;90.00
37322;DHT22;23697;48.684;9.032;2023-02-03T06:24:30;4.10;90.00
37322;DHT22;23697;48.684;9.032;2023-02-03T06:26:56;4.00;90.00
37322;DHT22;23697;48.684;9.032;2023-02-03T06:29:24;4.10;89.90
37322;DHT22;23697;48.684;9.032;2023-02-03T06:31:50;4.10;89.90
37322;DHT22;23697;48.684;9.032;2023-02-03T06:34:19;4.00;89.90
37322;DHT22;23697;48.684;9.032;2023-02-03T06:36:45;4.10;89.90
37322;DHT22;23697;48.684;9.032;2023-02-03T06:39:13;4.00;89.90
37322;DHT22;23697;48.684;9.032;2023-02-03T06:41:40;4.00;89.90
37322;DHT22;23697;48.684;9.032;2023-02-03T06:44:07;4.00;89.90
37322;DHT22;23697;48.684;9.032;2023-02-03T06:46:33;4.00;89.90
37322;DHT22;23697;48.684;9.032;2023-02-03T06:49:00;4.00;89.90
37322;DHT22;23697;48.684;9.032;2023-02-03T06:51:29;4.00;89.90
37322;DHT22;23697;48.684;9.032;2023-02-03T06:53:55;3.90;89.90
37322;DHT22;23697;48.684;9.032;2023-02-03T06:56:23;4.00;89.90
37322;DHT22;23697;48.684;9.032;2023-02-03T06:58:50;4.00;90.00
37322;DHT22;23697;48.684;9.032;2023-02-03T07:01:16;3.90;90.00
37322;DHT22;23697;48.684;9.032;2023-02-03T07:03:43;3.90;90.00
37322;DHT22;23697;48.684;9.032;2023-02-03T07:06:11;3.90;90.00
37322;DHT22;23697;48.684;9.032;2023-02-03T07:08:39;3.80;90.00
37322;DHT22;23697;48.684;9.032;2023-02-03T07:11:07;3.80;90.10
37322;DHT22;23697;48.684;9.032;2023-02-03T07:13:34;3.80;90.10
37322;DHT22;23697;48.684;9.032;2023-02-03T07:16:00;3.80;90.10
37322;DHT22;23697;48.684;9.032;2023-02-03T07:18:27;3.80;90.20
37322;DHT22;23697;48.684;9.032;2023-02-03T07:20:55;3.80;90.20
37322;DHT22;23697;48.684;9.032;2023-02-03T07:23:22;3.70;90.20
37322;DHT22;23697;48.684;9.032;2023-02-03T07:25:50;3.70;90.30
37322;DHT22;23697;48.684;9.032;2023-02-03T07:28:17;3.80;90.30
37322;DHT22;23697;48.684;9.032;2023-02-03T07:30:44;3.70;90.40
37322;DHT22;23697;48.684;9.032;2023-02-03T07:33:13;3.80;90.40
37322;DHT22;23697;48.684;9.032;2023-02-03T07:35:40;3.80;90.40
37322;DHT22;23697;48.684;9.032;2023-02-03T07:38:07;3.90;90.50
37322;DHT22;23697;48.684;9.032;2023-02-03T07:40:33;3.80;90.50
37322;DHT22;23697;48.684;9.032;2023-02-03T07:43:02;3.80;90.50
37322;DHT22;23697;48.684;9.032;2023-02-03T07:45:28;3.90;90.50
37322;DHT22;23697;48.684;9.032;2023-02-03T07:47:55;3.90;90.60
37322;DHT22;23697;48.684;9.032;2023-02-03T07:50:22;3.90;90.50
37322;DHT22;23697;48.684;9.032;2023-02-03T07:52:49;4.00;90.60
37322;DHT22;23697;48.684;9.032;2023-02-03T07:55:16;4.00;90.60
37322;DHT22;23697;48.684;9.032;2023-02-03T07:57:43;3.90;90.50
37322;DHT22;23697;48.684;9.032;2023-02-03T08:00:14;3.90;90.50
37322;DHT22;23697;48.684;9.032;2023-02-03T08:02:41;3.90;90.50
37322;DHT22;23697;48.684;9.032;2023-02-03T08:05:09;3.90;90.50
37322;DHT22;23697;48.684;9.032;2023-02-03T08:07:36;4.00;90.60
37322;DHT22;23697;48.684;9.032;2023-02-03T08:10:04;3.90;90.60
37322;DHT22;23697;48.684;9.032;2023-02-03T08:12:31;4.00;90.60
37322;DHT22;23697;48.684;9.032;2023-02-03T08:14:59;4.00;90.50
37322;DHT22;23697;48.684;9.032;2023-02-03T08:17:28;4.00;90.50
37322;DHT22;23697;48.684;9.032;2023-02-03T08:19:54;4.00;90.50
37322;DHT22;23697;48.684;9.032;2023-02-03T08:22:21;4.10;90.50
37322;DHT22;23697;48.684;9.032;2023-02-03T08:24:48;4.10;90.50
37322;DHT22;23697;48.684;9.032;2023-02-03T08:27:16;4.10;90.60
37322;DHT22;23697;48.684;9.032;2023-02-03T08:29:44;4.20;90.60
37322;DHT22;23697;48.684;9.032;2023-02-03T08:32:13;4.10;90.50
37322;DHT22;23697;48.684;9.032;2023-02-03T08:34:42;4.20;90.60
37322;DHT22;23697;48.684;9.032;2023-02-03T08:37:10;4.10;90.50
37322;DHT22;23697;48.684;9.032;2023-02-03T08:39:37;4.20;90.50
37322;DHT22;23697;48.684;9.032;2023-02-03T08:42:04;4.20;90.50
37322;DHT22;23697;48.684;9.032;2023-02-03T08:44:32;4.20;90.50
37322;DHT22;23697;48.684;9.032;2023-02-03T08:47:00;4.20;90.50
37322;DHT22;23697;48.684;9.032;2023-02-03T08:49:28;4.30;90.50
37322;DHT22;23697;48.684;9.032;2023-02-03T08:51:57;4.30;90.50
37322;DHT22;23697;48.684;9.032;2023-02-03T08:54:24;4.40;90.50
37322;DHT22;23697;48.684;9.032;2023-02-03T08:56:51;4.30;90.60
37322;DHT22;23697;48.684;9.032;2023-02-03T08:59:18;4.50;90.60
37322;DHT22;23697;48.684;9.032;2023-02-03T09:01:45;4.60;90.60
37322;DHT22;23697;48.684;9.032;2023-02-03T09:04:13;4.60;90.60
37322;DHT22;23697;48.684;9.032;2023-02-03T09:06:42;4.50;90.50
37322;DHT22;23697;48.684;9.032;2023-02-03T09:09:11;4.50;90.50
37322;DHT22;23697;48.684;9.032;2023-02-03T09:11:39;4.60;90.60
37322;DHT22;23697;48.684;9.032;2023-02-03T09:14:07;4.60;90.60
37322;DHT22;23697;48.684;9.032;2023-02-03T09:16:34;4.70;90.60
37322;DHT22;23697;48.684;9.032;2023-02-03T09:19:01;4.80;90.60
37322;DHT22;23697;48.684;9.032;2023-02-03T09:21:28;4.70;90.60
37322;DHT22;23697;48.684;9.032;2023-02-03T09:23:54;4.80;90.60
37322;DHT22;23697;48.684;9.032;2023-02-03T09:26:23;4.90;90.60
37322;DHT22;23697;48.684;9.032;2023-02-03T09:28:49;5.00;90.60
37322;DHT22;23697;48.684;9.032;2023-02-03T09:31:17;5.10;90.60
37322;DHT22;23697;48.684;9.032;2023-02-03T09:33:44;5.10;90.60
37322;DHT22;23697;48.684;9.032;2023-02-03T09:36:12;5.00;90.40
37322;DHT22;23697;48.684;9.032;2023-02-03T09:38:38;5.20;90.40
37322;DHT22;23697;48.684;9.032;2023-02-03T09:41:13;5.20;90.40
37322;DHT22;23697;48.684;9.032;2023-02-03T09:43:48;5.20;90.30
37322;DHT22;23697;48.684;9.032;2023-02-03T09:46:18;5.20;90.20
37322;DHT22;23697;48.684;9.032;2023-02-03T09:48:49;5.20;90.20
37322;DHT22;23697;48.684;9.032;2023-02-03T09:51:19;5.20;90.20
37322;DHT22;23697;48.684;9.032;2023-02-03T09:53:51;5.30;90.10
37322;DHT22;23697;48.684;9.032;2023-02-03T09:56:26;5.20;89.90
37322;DHT22;23697;48.684;9.032;2023-02-03T09:58:56;5.40;90.00
37322;DHT22;23697;48.684;9.032;2023-02-03T10:01:26;5.40;89.90
37322;DHT22;23697;48.684;9.032;2023-02-03T10:03:59;5.40;89.90
37322;DHT22;23697;48.684;9.032;2023-02-03T10:06:32;5.50;89.90
37322;DHT22;23697;48.684;9.032;2023-02-03T10:09:16;5.50;89.90
37322;DHT22;23697;48.684;9.032;2023-02-03T10:11:59;5.60;89.90
37322;DHT22;23697;48.684;9.032;2023-02-03T10:14:44;5.60;89.90
37322;DHT22;23697;48.684;9.032;2023-02-03T10:17:24;5.70;89.90
37322;DHT22;23697;48.684;9.032;2023-02-03T10:19:57;5.70;89.70
37322;DHT22;23697;48.684;9.032;2023-02-03T10:22:28;5.70;89.60
37322;DHT22;23697;48.684;9.032;2023-02-03T10:24:59;5.60;89.60
37322;DHT22;23697;48.684;9.032;2023-02-03T10:27:26;5.60;89.60
37322;DHT22;23697;48.684;9.032;2023-02-03T10:29:59;5.60;89.50
37322;DHT22;23697;48.684;9.032;2023-02-03T10:32:29;5.60;89.50
37322;DHT22;23697;48.684;9.032;2023-02-03T10:34:56;5.60;89.50
37322;DHT22;23697;48.684;9.032;2023-02-03T10:37:27;5.70;89.60
37322;DHT22;23697;48.684;9.032;2023-02-03T10:39:56;5.60;89.60
37322;DHT22;23697;48.684;9.032;2023-02-03T10:42:23;5.60;89.50
37322;DHT22;23697;48.684;9.032;2023-02-03T10:45:12;5.70;89.50
37322;DHT22;23697;48.684;9.032;2023-02-03T10:47:43;5.70;89.50
37322;DHT22;23697;48.684;9.032;2023-02-03T10:50:15;5.70;89.40
37322;DHT22;23697;48.684;9.032;2023-02-03T10:52:42;5.70;89.50
37322;DHT22;23697;48.684;9.032;2023-02-03T10:55:28;5.80;89.50
37322;DHT22;23697;48.684;9.032;2023-02-03T10:58:13;5.90;89.40
37322;DHT22;23697;48.684;9.032;2023-02-03T11:00:43;5.90;89.40
37322;DHT22;23697;48.684;9.032;2023-02-03T11:03:20;6.00;89.30
37322;DHT22;23697;48.684;9.032;2023-02-03T11:06:03;6.10;89.20
37322;DHT22;23697;48.684;9.032;2023-02-03T11:08:31;6.10;89.00
37322;DHT22;23697;48.684;9.032;2023-02-03T11:11:01;6.20;88.70
37322;DHT22;23697;48.684;9.032;2023-02-03T11:13:29;6.30;88.60
37322;DHT22;23697;48.684;9.032;2023-02-03T11:15:59;6.30;88.60
37322;DHT22;23697;48.684;9.032;2023-02-03T11:18:37;6.40;88.70
37322;DHT22;23697;48.684;9.032;2023-02-03T11:21:10;6.30;88.30
37322;DHT22;23697;48.684;9.032;2023-02-03T11:23:46;6.30;88.20
37322;DHT22;23697;48.684;9.032;2023-02-03T11:26:17;6.40;88.30
37322;DHT22;23697;48.684;9.032;2023-02-03T11:28:46;6.30;88.10
37322;DHT22;23697;48.684;9.032;2023-02-03T11:31:18;6.40;87.80
37322;DHT22;23697;48.684;9.032;2023-02-03T11:33:47;6.30;87.80
37322;DHT22;23697;48.684;9.032;2023-02-03T11:36:16;6.30;87.50
37322;DHT22;23697;48.684;9.032;2023-02-03T11:38:44;6.20;87.50
37322;DHT22;23697;48.684;9.032;2023-02-03T11:41:16;6.20;87.60
37322;DHT22;23697;48.684;9.032;2023-02-03T11:43:44;6.20;87.40
37322;DHT22;23697;48.684;9.032;2023-02-03T11:46:11;6.20;87.40
37322;DHT22;23697;48.684;9.032;2023-02-03T11:48:50;6.10;87.20
37322;DHT22;23697;48.684;9.032;2023-02-03T11:51:28;6.10;87.30
37322;DHT22;23697;48.684;9.032;2023-02-03T11:54:01;6.10;87.20
37322;DHT22;23697;48.684;9.032;2023-02-03T11:59:53;6.10;87.10
37322;DHT22;23697;48.684;9.032;2023-02-03T12:02:40;6.20;87.00
37322;DHT22;23697;48.684;9.032;2023-02-03T12:05:30;6.30;86.80
37322;DHT22;23697;48.684;9.032;2023-02-03T12:08:12;6.30;86.60
37322;DHT22;23697;48.684;9.032;2023-02-03T12:10:50;6.30;86.70
37322;DHT22;23697;48.684;9.032;2023-02-03T12:13:39;6.30;86.40
37322;DHT22;23697;48.684;9.032;2023-02-03T12:16:25;6.30;86.50
37322;DHT22;23697;48.684;9.032;2023-02-03T12:19:01;6.30;86.50
37322;DHT22;23697;48.684;9.032;2023-02-03T12:21:40;6.30;86.10
37322;DHT22;23697;48.684;9.032;2023-02-03T12:24:17;6.30;86.50
37322;DHT22;23697;48.684;9.032;2023-02-03T12:26:51;6.50;86.10
37322;DHT22;23697;48.684;9.032;2023-02-03T12:29:23;6.50;85.70
37322;DHT22;23697;48.684;9.032;2023-02-03T12:31:59;6.60;85.30
37322;DHT22;23697;48.684;9.032;2023-02-03T12:34:30;6.50;85.50
37322;DHT22;23697;48.684;9.032;2023-02-03T12:37:01;6.50;85.60
37322;DHT22;23697;48.684;9.032;2023-02-03T12:39:32;6.50;85.50
37322;DHT22;23697;48.684;9.032;2023-02-03T12:42:02;6.40;85.10
37322;DHT22;23697;48.684;9.032;2023-02-03T12:44:34;6.40;85.10
37322;DHT22;23697;48.684;9.032;2023-02-03T12:47:11;6.30;85.40
37322;DHT22;23697;48.684;9.032;2023-02-03T12:49:43;6.30;84.80
37322;DHT22;23697;48.684;9.032;2023-02-03T12:52:19;6.20;85.10
37322;DHT22;23697;48.684;9.032;2023-02-03T12:54:51;6.20;85.30
37322;DHT22;23697;48.684;9.032;2023-02-03T12:57:24;6.10;85.30
37322;DHT22;23697;48.684;9.032;2023-02-03T13:00:14;6.10;85.50
37322;DHT22;23697;48.684;9.032;2023-02-03T13:02:51;6.10;85.40
37322;DHT22;23697;48.684;9.032;2023-02-03T13:05:25;6.10;85.40
37322;DHT22;23697;48.684;9.032;2023-02-03T13:08:00;6.10;85.50
37322;DHT22;23697;48.684;9.032;2023-02-03T13:10:33;6.10;85.20
37322;DHT22;23697;48.684;9.032;2023-02-03T13:13:03;6.10;85.00
37322;DHT22;23697;48.684;9.032;2023-02-03T13:15:36;6.10;84.80
37322;DHT22;23697;48.684;9.032;2023-02-03T13:18:10;6.20;84.70
37322;DHT22;23697;48.684;9.032;2023-02-03T13:20:40;6.20;85.00
37322;DHT22;23697;48.684;9.032;2023-02-03T13:23:12;6.20;85.00
37322;DHT22;23697;48.684;9.032;2023-02-03T13:25:50;6.20;84.50
37322;DHT22;23697;48.684;9.032;2023-02-03T13:28:23;6.30;84.60
37322;DHT22;23697;48.684;9.032;2023-02-03T13:31:13;6.30;84.70
37322;DHT22;23697;48.684;9.032;2023-02-03T13:33:57;6.30;84.50
37322;DHT22;23697;48.684;9.032;2023-02-03T13:36:50;6.30;84.50
37322;DHT22;23697;48.684;9.032;2023-02-03T13:39:44;6.20;84.40
37322;DHT22;23697;48.684;9.032;2023-02-03T13:42:22;6.20;84.30
37322;DHT22;23697;48.684;9.032;2023-02-03T13:44:54;6.20;84.50
37322;DHT22;23697;48.684;9.032;2023-02-03T13:47:25;6.20;84.50
37322;DHT22;23697;48.684;9.032;2023-02-03T13:49:54;6.20;84.40
37322;DHT22;23697;48.684;9.032;2023-02-03T13:52:27;6.20;84.40
37322;DHT22;23697;48.684;9.032;2023-02-03T13:54:56;6.20;84.20
37322;DHT22;23697;48.684;9.032;2023-02-03T13:57:28;6.20;84.40
37322;DHT22;23697;48.684;9.032;2023-02-03T13:59:59;6.20;84.30
37322;DHT22;23697;48.684;9.032;2023-02-03T14:02:53;6.30;84.20
37322;DHT22;23697;48.684;9.032;2023-02-03T14:05:40;6.30;84.10
37322;DHT22;23697;48.684;9.032;2023-02-03T14:11:41;6.20;84.20
37322;DHT22;23697;48.684;9.032;2023-02-03T14:14:41;6.20;84.40
37322;DHT22;23697;48.684;9.032;2023-02-03T14:20:37;6.10;84.50
37322;DHT22;23697;48.684;9.032;2023-02-03T14:23:07;6.10;84.80
37322;DHT22;23697;48.684;9.032;2023-02-03T14:25:40;6.10;85.00
37322;DHT22;23697;48.684;9.032;2023-02-03T14:28:11;6.10;85.10
37322;DHT22;23697;48.684;9.032;2023-02-03T14:31:01;6.10;85.00
37322;DHT22;23697;48.684;9.032;2023-02-03T14:33:45;6.10;85.10
37322;DHT22;23697;48.684;9.032;2023-02-03T14:36:43;6.10;85.30
37322;DHT22;23697;48.684;9.032;2023-02-03T14:42:20;6.00;85.50
37322;DHT22;23697;48.684;9.032;2023-02-03T14:45:01;6.00;85.60
37322;DHT22;23697;48.684;9.032;2023-02-03T14:47:44;5.90;85.70
37322;DHT22;23697;48.684;9.032;2023-02-03T14:50:25;5.90;85.80
37322;DHT22;23697;48.684;9.032;2023-02-03T14:53:07;5.90;86.00
37322;DHT22;23697;48.684;9.032;2023-02-03T14:55:46;5.90;86.10
37322;DHT22;23697;48.684;9.032;2023-02-03T14:58:22;5.90;86.30
37322;DHT22;23697;48.684;9.032;2023-02-03T15:00:54;5.90;86.50
37322;DHT22;23697;48.684;9.032;2023-02-03T15:03:23;5.90;86.70
37322;DHT22;23697;48.684;9.032;2023-02-03T15:05:53;5.80;87.00
37322;DHT22;23697;48.684;9.032;2023-02-03T15:08:44;5.80;87.00
37322;DHT22;23697;48.684;9.032;2023-02-03T15:11:28;5.80;87.30
37322;DHT22;23697;48.684;9.032;2023-02-03T15:16:41;5.70;87.50
37322;DHT22;23697;48.684;9.032;2023-02-03T15:19:15;5.60;87.70
37322;DHT22;23697;48.684;9.032;2023-02-03T15:21:42;5.60;87.60
37322;DHT22;23697;48.684;9.032;2023-02-03T15:24:12;5.70;87.70
37322;DHT22;23697;48.684;9.032;2023-02-03T15:26:44;5.60;87.80
37322;DHT22;23697;48.684;9.032;2023-02-03T15:29:19;5.60;87.90
37322;DHT22;23697;48.684;9.032;2023-02-03T15:31:49;5.60;88.00
37322;DHT22;23697;48.684;9.032;2023-02-03T15:34:22;5.60;88.10
37322;DHT22;23697;48.684;9.032;2023-02-03T15:36:53;5.60;88.20
37322;DHT22;23697;48.684;9.032;2023-02-03T15:39:27;5.60;88.30
37322;DHT22;23697;48.684;9.032;2023-02-03T15:41:57;5.60;88.40
37322;DHT22;23697;48.684;9.032;2023-02-03T15:44:29;5.50;88.30
37322;DHT22;23697;48.684;9.032;2023-02-03T15:46:59;5.50;88.40
37322;DHT22;23697;48.684;9.032;2023-02-03T15:49:30;5.60;88.40
37322;DHT22;23697;48.684;9.032;2023-02-03T15:52:02;5.60;88.40
37322;DHT22;23697;48.684;9.032;2023-02-03T15:54:32;5.50;88.40
37322;DHT22;23697;48.684;9.032;2023-02-03T15:57:06;5.60;88.40
37322;DHT22;23697;48.684;9.032;2023-02-03T15:59:37;5.60;88.40
37322;DHT22;23697;48.684;9.032;2023-02-03T16:02:14;5.50;88.40
37322;DHT22;23697;48.684;9.032;2023-02-03T16:04:41;5.50;88.30
37322;DHT22;23697;48.684;9.032;2023-02-03T16:07:16;5.50;88.30
37322;DHT22;23697;48.684;9.032;2023-02-03T16:09:43;5.50;88.30
37322;DHT22;23697;48.684;9.032;2023-02-03T16:12:17;5.50;88.40
37322;DHT22;23697;48.684;9.032;2023-02-03T16:14:48;5.50;88.50
37322;DHT22;23697;48.684;9.032;2023-02-03T16:17:24;5.50;88.50
37322;DHT22;23697;48.684;9.032;2023-02-03T16:20:23;5.50;88.70
37322;DHT22;23697;48.684;9.032;2023-02-03T16:23:04;5.40;88.80
37322;DHT22;23697;48.684;9.032;2023-02-03T16:25:33;5.50;88.90
37322;DHT22;23697;48.684;9.032;2023-02-03T16:28:01;5.40;88.90